Time;durP1;ratioP1;P1;durP2;ratioP2;P2;SDS_P1;SDS_P2;PMS_P1;PMS_P2;Temp;Humidity;BMP_temperature;BMP_pressure;BME280_temperature;BME280_humidity;BME280_pressure;Samples;Min_cycle;Max_cycle;Signal;HPM_P1;HPM_P2
2024/01/18 00:02:01;;;;;;;2.15;1.10;;;;;;;5.52;70.18;94495.69;5008682;28;20196;-80
2024/01/18 00:04:26;;;;;;;1.80;1.70;;;;;;;5.59;70.87;94511.59;5011295;28;20026;-80
2024/01/18 00:06:51;;;;;;;3.25;1.40;;;;;;;5.67;69.65;94523.09;5008204;28;20565;-80
2024/01/18 00:09:17;;;;;;;12.70;2.35;;;;;;;5.69;69.67;94521.03;4983601;28;20037;-79
2024/01/18 00:11:42;;;;;;;1.40;1.30;;;;;;;5.74;69.83;94518.38;5006482;28;20419;-80
2024/01/18 00:14:07;;;;;;;1.30;1.20;;;;;;;5.60;69.04;94510.56;5006683;28;20414;-80
2024/01/18 00:16:34;;;;;;;1.77;1.10;;;;;;;5.54;69.30;94509.06;4991130;28;20033;-81
2024/01/18 00:19:00;;;;;;;1.15;1.00;;;;;;;5.30;70.06;94514.28;5008772;28;20065;-80
2024/01/18 00:21:25;;;;;;;1.30;1.20;;;;;;;5.28;70.44;94503.47;5009645;28;20135;-81
2024/01/18 00:23:50;;;;;;;1.40;1.10;;;;;;;5.49;69.34;94506.56;5015463;28;20029;-83
2024/01/18 00:26:16;;;;;;;1.63;1.38;;;;;;;5.42;69.01;94511.31;5003173;28;20030;-85
2024/01/18 00:28:41;;;;;;;2.50;1.70;;;;;;;5.40;68.88;94498.66;5013022;28;20030;-85
2024/01/18 00:31:06;;;;;;;1.63;1.50;;;;;;;5.42;68.71;94512.06;5000520;28;20037;-86
2024/01/18 00:33:32;;;;;;;1.98;1.80;;;;;;;5.42;69.48;94522.38;5006807;28;20437;-84
2024/01/18 00:35:57;;;;;;;2.53;2.22;;;;;;;5.32;69.08;94519.16;5013043;28;20076;-85
2024/01/18 00:38:22;;;;;;;2.10;1.70;;;;;;;5.36;69.25;94518.31;5000183;28;20037;-86
2024/01/18 00:40:48;;;;;;;2.65;2.25;;;;;;;5.21;69.00;94513.34;5019392;28;20112;-87
2024/01/18 00:43:13;;;;;;;6.80;2.92;;;;;;;5.27;69.16;94530.28;5005584;28;20037;-87
2024/01/18 00:45:41;;;;;;;3.65;2.75;;;;;;;5.36;68.36;94518.31;5009447;28;20037;-84
2024/01/18 00:48:07;;;;;;;4.57;3.20;;;;;;;5.25;68.94;94519.50;5001185;28;20080;-86
2024/01/18 00:50:32;;;;;;;11.52;3.22;;;;;;;5.31;69.32;94526.13;5004594;28;20410;-85
2024/01/18 00:52:58;;;;;;;12.13;3.80;;;;;;;5.20;68.41;94527.28;5002598;28;20037;-86
2024/01/18 00:55:23;;;;;;;6.40;3.85;;;;;;;5.12;69.49;94522.72;5028954;28;20091;-86
2024/01/18 00:57:50;;;;;;;20.60;5.50;;;;;;;4.96;68.92;94532.44;4981140;28;20044;-87
2024/01/18 01:00:16;;;;;;;10.82;4.05;;;;;;;5.10;69.51;94548.03;5031259;28;20064;-85
2024/01/18 01:02:41;;;;;;;30.35;6.65;;;;;;;5.03;69.24;94538.78;4997705;28;20030;-84
2024/01/18 01:05:07;;;;;;;24.73;5.22;;;;;;;5.00;68.76;94549.69;4992843;28;20168;-85
2024/01/18 01:07:33;;;;;;;15.40;4.68;;;;;;;4.91;68.54;94533.25;5009856;28;20043;-88
2024/01/18 01:09:58;;;;;;;6.18;3.70;;;;;;;4.95;69.50;94544.56;5020412;28;20033;-85
2024/01/18 01:12:23;;;;;;;8.00;3.53;;;;;;;4.82;69.31;94540.81;4993676;28;20037;-86
2024/01/18 01:14:49;;;;;;;4.63;3.17;;;;;;;4.96;68.87;94547.91;5010798;28;20083;-85
2024/01/18 01:17:14;;;;;;;4.45;2.95;;;;;;;4.96;68.83;94548.66;5010247;28;20030;-85
2024/01/18 01:19:40;;;;;;;3.97;3.03;;;;;;;5.00;69.40;94551.47;5007816;28;20405;-83
2024/01/18 01:22:05;;;;;;;4.03;3.17;;;;;;;5.03;68.71;94550.94;5024279;28;20036;-86
2024/01/18 01:24:31;;;;;;;5.47;3.10;;;;;;;5.05;69.22;94562.53;4987097;28;20049;-84
2024/01/18 01:26:56;;;;;;;4.20;3.33;;;;;;;4.93;68.38;94559.53;5020004;28;20084;-84
2024/01/18 01:29:22;;;;;;;6.43;3.78;;;;;;;4.73;69.16;94551.97;4993115;28;20099;-83
2024/01/18 01:31:48;;;;;;;6.00;3.20;;;;;;;4.87;68.58;94573.53;5018410;28;20486;-84
2024/01/18 01:34:14;;;;;;;3.10;2.42;;;;;;;4.91;69.45;94577.09;5000442;28;20038;-83
2024/01/18 01:36:39;;;;;;;4.50;2.88;;;;;;;4.78;68.55;94565.59;5006411;28;20030;-83
2024/01/18 01:39:04;;;;;;;5.28;3.40;;;;;;;4.67;69.24;94574.47;4998689;28;20587;-85
2024/01/18 01:41:32;;;;;;;3.13;2.63;;;;;;;4.78;68.99;94575.13;5015007;28;20104;-85
2024/01/18 01:43:58;;;;;;;4.05;2.72;;;;;;;4.77;69.46;94550.41;5007987;28;20037;-83
2024/01/18 01:46:24;;;;;;;8.23;3.15;;;;;;;4.60;70.00;94545.66;5013565;28;20037;-82
2024/01/18 01:48:50;;;;;;;5.80;3.35;;;;;;;4.58;70.04;94556.25;4990788;28;20149;-83
2024/01/18 01:51:15;;;;;;;3.97;2.80;;;;;;;4.49;70.18;94560.44;5022619;28;20116;-84
2024/01/18 01:53:41;;;;;;;3.33;2.60;;;;;;;4.54;69.63;94559.63;4990567;28;20063;-84
2024/01/18 01:56:06;;;;;;;5.22;2.60;;;;;;;4.45;69.85;94557.63;5010213;28;20172;-82
2024/01/18 01:58:32;;;;;;;13.18;3.60;;;;;;;4.55;69.81;94574.81;5025743;28;20033;-82
2024/01/18 02:00:58;;;;;;;4.15;2.55;;;;;;;4.62;69.82;94590.72;5027347;28;20501;-85
2024/01/18 02:03:25;;;;;;;3.92;2.50;;;;;;;4.57;69.31;94595.91;4995272;28;20133;-82
2024/01/18 02:05:51;;;;;;;3.67;2.33;;;;;;;4.55;69.27;94598.00;4978192;28;20444;-82
2024/01/18 02:08:16;;;;;;;3.30;2.13;;;;;;;4.56;69.94;94594.41;5006005;28;20112;-83
2024/01/18 02:10:42;;;;;;;4.30;2.28;;;;;;;4.42;69.46;94588.28;5011018;28;20029;-86
2024/01/18 02:13:07;;;;;;;41.83;5.25;;;;;;;4.23;70.17;94576.09;4994704;28;20072;-83
2024/01/18 02:15:34;;;;;;;4.75;2.20;;;;;;;4.47;70.18;94596.00;4994555;28;20037;-83
2024/01/18 02:17:59;;;;;;;10.68;3.13;;;;;;;4.42;70.18;94593.44;4979109;28;20040;-83
2024/01/18 02:20:25;;;;;;;3.72;2.22;;;;;;;4.40;69.74;94590.38;5010420;28;20045;-83
2024/01/18 02:22:50;;;;;;;3.03;2.08;;;;;;;4.51;69.46;94602.16;4996582;28;20337;-82
2024/01/18 02:25:24;;;;;;;3.33;1.77;;;;;;;4.68;69.67;94588.91;5023238;28;20075;-85
2024/01/18 02:27:53;;;;;;;3.97;2.03;;;;;;;4.59;69.51;94588.72;5016214;28;20096;-82
2024/01/18 02:30:18;;;;;;;5.00;1.83;;;;;;;4.43;69.77;94585.47;4993511;28;20065;-81
2024/01/18 02:32:44;;;;;;;3.55;1.92;;;;;;;4.50;69.65;94588.50;5025890;28;20061;-82
2024/01/18 02:35:09;;;;;;;42.40;5.88;;;;;;;4.36;70.27;94579.09;4998657;28;20026;-83
2024/01/18 02:37:34;;;;;;;17.90;3.67;;;;;;;4.31;70.47;94580.63;5021543;28;20038;-84
2024/01/18 02:40:00;;;;;;;45.38;6.45;;;;;;;4.29;70.14;94584.53;5021733;28;20592;-83
2024/01/18 02:42:25;;;;;;;76.30;8.90;;;;;;;4.02;70.90;94566.94;5007297;28;20393;-83
2024/01/18 02:44:52;;;;;;;14.93;3.50;;;;;;;4.15;70.87;94574.06;5007253;28;20497;-87
2024/01/18 02:47:18;;;;;;;15.55;3.30;;;;;;;4.05;71.23;94577.47;4980157;28;20189;-86
2024/01/18 02:49:43;;;;;;;3.85;2.30;;;;;;;3.83;72.14;94579.66;4980988;28;20507;-87
2024/01/18 02:52:08;;;;;;;3.55;2.10;;;;;;;3.99;71.85;94572.59;5000000;28;20568;-83
2024/01/18 02:54:34;;;;;;;4.50;2.55;;;;;;;3.82;71.58;94565.22;4989514;28;20120;-83
2024/01/18 02:56:59;;;;;;;3.67;2.38;;;;;;;4.08;70.71;94564.06;4998557;28;20041;-82
2024/01/18 02:59:24;;;;;;;4.70;3.00;;;;;;;4.18;70.80;94552.94;5017734;28;20072;-82
2024/01/18 03:01:50;;;;;;;5.32;3.30;;;;;;;4.17;70.69;94564.25;5015755;28;20080;-85
2024/01/18 03:04:15;;;;;;;15.95;4.32;;;;;;;4.16;70.26;94556.81;4993092;28;20026;-83
2024/01/18 03:06:40;;;;;;;21.80;4.50;;;;;;;4.21;70.10;94547.22;4993868;28;20084;-83
2024/01/18 03:09:06;;;;;;;53.25;7.60;;;;;;;4.17;70.71;94538.50;5026208;28;20030;-82
2024/01/18 03:11:31;;;;;;;69.25;8.57;;;;;;;4.11;70.33;94535.22;5006421;28;20034;-84
2024/01/18 03:13:56;;;;;;;10.70;3.35;;;;;;;4.09;70.98;94554.53;5008514;28;20688;-83
2024/01/18 03:16:22;;;;;;;7.00;3.20;;;;;;;4.17;70.50;94541.09;5008880;28;20504;-84
2024/01/18 03:18:47;;;;;;;5.57;2.75;;;;;;;4.21;70.67;94549.03;4986648;28;20064;-84
2024/01/18 03:21:13;;;;;;;7.57;3.28;;;;;;;4.17;70.69;94553.22;5009145;28;20473;-83
2024/01/18 03:23:38;;;;;;;13.43;3.40;;;;;;;4.09;70.93;94554.53;4992304;28;20116;-83
2024/01/18 03:26:04;;;;;;;27.83;5.13;;;;;;;3.96;70.89;94562.84;5007038;28;20065;-83
2024/01/18 03:28:29;;;;;;;53.50;7.47;;;;;;;4.06;71.27;94555.06;5021506;28;20037;-84
2024/01/18 03:30:54;;;;;;;22.38;5.03;;;;;;;4.08;71.08;94558.16;5012105;28;20400;-84
2024/01/18 03:33:20;;;;;;;26.73;5.10;;;;;;;4.09;70.82;94559.69;4982645;28;20041;-82
2024/01/18 03:35:45;;;;;;;51.50;7.05;;;;;;;4.12;70.93;94549.59;5003485;28;20038;-83
2024/01/18 03:38:10;;;;;;;9.48;2.60;;;;;;;4.16;70.81;94549.84;4990593;28;20039;-84
2024/01/18 03:40:39;;;;;;;12.35;2.55;;;;;;;4.04;70.75;94555.31;5005670;28;20030;-82
2024/01/18 03:43:04;;;;;;;3.65;2.40;;;;;;;3.98;70.97;94551.25;4978083;28;20068;-83
2024/01/18 03:45:31;;;;;;;2.80;1.40;;;;;;;3.93;71.21;94553.84;5002397;28;20057;-84
2024/01/18 03:47:56;;;;;;;3.17;1.90;;;;;;;4.12;71.14;94564.28;5016869;28;20566;-85
2024/01/18 03:50:21;;;;;;;3.17;1.77;;;;;;;4.11;70.56;94560.97;5018908;28;20041;-87
2024/01/18 03:52:47;;;;;;;3.05;1.70;;;;;;;4.00;71.00;94569.00;5006666;28;20101;-85
2024/01/18 03:55:12;;;;;;;2.65;1.42;;;;;;;4.12;70.49;94562.47;5021798;28;20281;-85
2024/01/18 03:57:39;;;;;;;2.85;1.60;;;;;;;4.09;71.07;94575.13;4995008;28;20029;-84
2024/01/18 04:00:05;;;;;;;1.23;1.00;;;;;;;3.86;71.96;94586.84;5001872;28;20065;-82
2024/01/18 04:02:30;;;;;;;3.42;1.75;;;;;;;3.68;71.81;94583.06;5002765;28;20056;-84
2024/01/18 04:04:56;;;;;;;2.08;1.45;;;;;;;3.68;72.44;94563.25;5014590;28;20069;-84
2024/01/18 04:07:22;;;;;;;1.83;1.50;;;;;;;3.50;72.28;94558.72;5022347;28;20033;-84
2024/01/18 04:09:47;;;;;;;2.92;1.30;;;;;;;3.19;73.40;94569.84;5022411;28;20034;-83
2024/01/18 04:12:13;;;;;;;1.88;1.38;;;;;;;3.36;73.62;94577.28;4986451;28;20034;-83
2024/01/18 04:14:40;;;;;;;2.75;1.65;;;;;;;3.69;72.19;94597.47;4988733;28;20054;-83
2024/01/18 04:17:06;;;;;;;1.95;1.65;;;;;;;3.91;70.98;94607.41;5001798;28;20120;-81
2024/01/18 04:19:31;;;;;;;2.70;1.92;;;;;;;3.75;71.51;94598.97;5008739;28;20648;-82
2024/01/18 04:21:56;;;;;;;4.25;2.00;;;;;;;3.46;72.55;94581.63;5014952;28;20461;-83
2024/01/18 04:24:22;;;;;;;2.92;1.63;;;;;;;3.80;71.65;94598.94;5017701;28;20060;-83
2024/01/18 04:26:49;;;;;;;2.33;1.63;;;;;;;4.00;71.35;94628.22;5003751;28;20038;-83
2024/01/18 04:29:14;;;;;;;2.35;1.80;;;;;;;3.86;71.91;94600.47;5011724;28;20121;-83
2024/01/18 04:31:40;;;;;;;2.78;1.52;;;;;;;3.70;72.29;94604.16;5025493;28;20085;-83
2024/01/18 04:34:05;;;;;;;4.20;2.20;;;;;;;4.01;70.78;94634.91;5009031;28;20417;-83
2024/01/18 04:36:30;;;;;;;3.00;1.73;;;;;;;3.82;71.94;94614.13;4982347;28;20420;-83
2024/01/18 04:38:56;;;;;;;2.15;1.25;;;;;;;3.76;71.92;94626.25;5023249;28;20497;-83
2024/01/18 04:41:21;;;;;;;2.33;1.60;;;;;;;3.96;71.53;94624.63;5007075;28;20397;-84
2024/01/18 04:43:46;;;;;;;2.75;1.83;;;;;;;3.94;71.49;94612.81;4980498;28;20061;-82
2024/01/18 04:46:12;;;;;;;1.85;1.40;;;;;;;3.92;71.22;94624.38;5007959;28;20037;-84
2024/01/18 04:48:37;;;;;;;2.78;1.77;;;;;;;3.45;72.29;94605.03;5009554;28;20482;-82
2024/01/18 04:51:04;;;;;;;6.55;3.78;;;;;;;3.66;71.85;94608.28;5010400;28;20044;-82
2024/01/18 04:53:29;;;;;;;3.97;2.92;;;;;;;3.49;71.93;94600.88;5004509;28;20061;-83
2024/01/18 04:55:55;;;;;;;3.25;2.45;;;;;;;3.45;72.76;94613.50;5001449;28;20033;-82
2024/01/18 04:58:22;;;;;;;4.13;2.83;;;;;;;3.52;73.08;94626.84;4991044;28;20045;-82
2024/01/18 05:00:47;;;;;;;4.82;2.97;;;;;;;3.55;72.57;94612.72;5033766;28;20400;-83
2024/01/18 05:03:13;;;;;;;4.57;3.28;;;;;;;3.65;71.87;94624.75;5017157;28;20041;-83
2024/01/18 05:05:38;;;;;;;4.30;3.20;;;;;;;3.38;72.48;94618.91;5023349;28;20477;-83
2024/01/18 05:08:03;;;;;;;6.25;3.72;;;;;;;3.41;73.25;94617.66;5006620;28;20042;-82
2024/01/18 05:10:29;;;;;;;5.20;2.60;;;;;;;3.41;72.66;94619.44;5008404;28;20314;-82
2024/01/18 05:12:54;;;;;;;3.90;2.30;;;;;;;3.37;72.90;94607.09;5014129;28;20147;-81
2024/01/18 05:15:20;;;;;;;4.13;2.63;;;;;;;3.39;72.75;94604.25;4990252;28;20338;-81
2024/01/18 05:17:47;;;;;;;5.00;2.40;;;;;;;3.20;73.32;94609.19;4989361;28;20025;-81
2024/01/18 05:20:12;;;;;;;4.72;2.47;;;;;;;3.46;72.71;94622.78;5021281;28;20040;-79
2024/01/18 05:22:38;;;;;;;3.88;2.33;;;;;;;3.73;72.25;94626.78;4988879;28;20026;-79
2024/01/18 05:25:04;;;;;;;4.35;2.10;;;;;;;3.50;72.05;94612.72;5014825;28;20029;-79
2024/01/18 05:27:32;;;;;;;4.28;2.78;;;;;;;3.38;72.76;94620.72;5009568;28;20037;-81
2024/01/18 05:29:57;;;;;;;2.65;1.83;;;;;;;3.30;72.90;94606.59;5010003;28;20033;-80
2024/01/18 05:32:23;;;;;;;3.15;1.75;;;;;;;3.23;73.28;94605.34;5005584;28;20045;-80
2024/01/18 05:34:49;;;;;;;6.05;2.67;;;;;;;3.47;72.80;94611.44;5004179;28;20045;-80
2024/01/18 05:37:15;;;;;;;3.38;1.90;;;;;;;3.38;72.45;94610.44;5009253;28;20081;-79
2024/01/18 05:39:41;;;;;;;3.90;2.30;;;;;;;3.43;72.28;94619.94;5018614;28;20033;-84
2024/01/18 05:42:07;;;;;;;2.80;1.70;;;;;;;3.33;72.73;94623.31;5002815;28;20033;-80
2024/01/18 05:44:33;;;;;;;3.85;1.85;;;;;;;3.08;73.63;94622.31;5024112;28;20143;-81
2024/01/18 05:46:58;;;;;;;3.30;2.10;;;;;;;2.84;74.26;94618.75;5014417;28;20490;-82
2024/01/18 05:49:23;;;;;;;4.20;2.30;;;;;;;2.97;73.91;94628.53;5018624;28;20048;-80
2024/01/18 05:51:49;;;;;;;4.13;2.55;;;;;;;3.11;73.61;94613.34;5032790;28;20052;-80
2024/01/18 05:54:15;;;;;;;2.85;1.83;;;;;;;2.99;73.85;94603.31;5002092;28;20025;-85
2024/01/18 05:56:41;;;;;;;4.15;2.10;;;;;;;2.92;73.95;94608.72;5008243;28;20705;-84
2024/01/18 05:59:07;;;;;;;5.40;3.25;;;;;;;3.43;72.84;94640.50;5000297;28;20100;-82
2024/01/18 06:01:32;;;;;;;16.52;10.45;;;;;;;3.47;71.74;94642.31;5002742;28;20072;-81
2024/01/18 06:03:58;;;;;;;21.45;13.15;;;;;;;3.27;72.61;94614.06;5007717;28;20033;-80
2024/01/18 06:06:23;;;;;;;4.90;3.58;;;;;;;3.18;73.24;94614.59;5025532;28;20061;-81
2024/01/18 06:08:49;;;;;;;10.32;6.72;;;;;;;3.27;72.78;94643.09;4994499;28;20025;-82
2024/01/18 06:11:14;;;;;;;14.20;9.75;;;;;;;3.28;72.16;94636.94;4988169;28;20121;-80
2024/01/18 06:13:40;;;;;;;7.85;5.50;;;;;;;2.81;73.62;94632.88;5008878;28;20371;-81
2024/01/18 06:16:12;;;;;;;4.38;2.40;;;;;;;2.86;74.16;94632.09;5025066;28;20026;-83
2024/01/18 06:18:38;;;;;;;5.72;3.53;;;;;;;2.81;74.55;94646.50;5017117;28;20037;-82
2024/01/18 06:21:06;;;;;;;4.85;2.97;;;;;;;2.73;74.02;94641.13;5001362;28;20152;-81
2024/01/18 06:23:32;;;;;;;5.30;3.33;;;;;;;2.83;73.60;94643.69;5021895;28;20104;-81
2024/01/18 06:25:57;;;;;;;4.65;2.65;;;;;;;3.00;73.62;94643.44;5007654;28;20122;-83
2024/01/18 06:28:23;;;;;;;6.07;3.85;;;;;;;2.82;73.35;94647.28;5014863;28;20108;-84
2024/01/18 06:30:48;;;;;;;6.38;4.22;;;;;;;3.07;73.05;94649.06;4997729;28;20397;-84
2024/01/18 06:33:13;;;;;;;8.68;5.65;;;;;;;3.24;72.45;94648.00;5024994;28;20529;-84
2024/01/18 06:35:39;;;;;;;6.35;3.78;;;;;;;2.84;72.89;94654.72;4993283;28;20030;-81
2024/01/18 06:38:04;;;;;;;5.80;3.33;;;;;;;2.74;73.61;94650.34;5004657;28;20056;-83
2024/01/18 06:40:29;;;;;;;6.00;3.47;;;;;;;2.86;72.99;94647.53;5002921;28;20491;-83
2024/01/18 06:42:55;;;;;;;6.85;4.07;;;;;;;3.12;72.55;94651.63;5016197;28;20030;-85
2024/01/18 06:45:20;;;;;;;7.18;5.07;;;;;;;3.34;71.70;94664.22;4997026;28;20034;-83
2024/01/18 06:47:45;;;;;;;8.77;4.80;;;;;;;3.14;72.15;94664.22;4981676;28;20068;-83
2024/01/18 06:50:13;;;;;;;7.03;3.90;;;;;;;3.01;72.40;94670.66;5024684;28;20037;-83
2024/01/18 06:52:39;;;;;;;7.75;4.95;;;;;;;2.96;72.85;94668.09;4998047;28;20030;-84
2024/01/18 06:55:05;;;;;;;7.72;4.75;;;;;;;3.04;72.59;94685.56;5007590;28;20041;-84
2024/01/18 06:57:31;;;;;;;6.65;3.58;;;;;;;3.15;72.18;94689.69;4992778;28;20041;-84
2024/01/18 06:59:56;;;;;;;7.20;3.95;;;;;;;3.28;71.66;94682.47;5019117;28;20397;-84
2024/01/18 07:02:21;;;;;;;5.53;3.47;;;;;;;3.12;71.67;94703.06;4979984;28;20029;-83
2024/01/18 07:04:47;;;;;;;5.25;3.00;;;;;;;3.21;71.65;94705.13;5005161;28;20040;-84
2024/01/18 07:07:12;;;;;;;6.20;3.85;;;;;;;3.01;72.22;94706.66;4990296;28;20095;-82
2024/01/18 07:09:37;;;;;;;5.30;3.17;;;;;;;2.84;71.69;94698.41;5006590;28;20448;-84
2024/01/18 07:12:04;;;;;;;6.57;3.55;;;;;;;2.95;72.11;94720.53;4985897;28;20060;-83
2024/01/18 07:14:30;;;;;;;5.88;3.78;;;;;;;2.72;72.63;94721.78;4997768;28;20485;-84
2024/01/18 07:16:56;;;;;;;4.85;3.08;;;;;;;2.49;73.19;94730.75;4984881;28;20511;-83
2024/01/18 07:19:21;;;;;;;4.25;2.30;;;;;;;2.18;73.13;94716.00;5017211;28;20026;-84
2024/01/18 07:21:47;;;;;;;4.47;2.20;;;;;;;1.81;73.75;94728.94;5030744;28;20033;-83
2024/01/18 07:24:12;;;;;;;2.15;1.45;;;;;;;1.92;73.42;94720.28;5000776;28;20125;-80
2024/01/18 07:26:40;;;;;;;4.00;2.28;;;;;;;1.98;73.95;94716.69;4997956;28;20152;-80
2024/01/18 07:29:06;;;;;;;2.35;1.58;;;;;;;1.84;73.85;94742.03;5021607;28;20065;-81
2024/01/18 07:31:31;;;;;;;7.32;3.28;;;;;;;2.22;71.68;94731.66;4998820;28;20540;-83
2024/01/18 07:33:56;;;;;;;3.97;2.05;;;;;;;2.20;72.41;94728.59;4982811;28;20030;-81
2024/01/18 07:36:22;;;;;;;1.73;0.98;;;;;;;2.04;72.09;94720.84;4999477;28;20040;-83
2024/01/18 07:38:47;;;;;;;2.28;1.25;;;;;;;2.21;71.52;94745.53;5001726;28;20455;-84
2024/01/18 07:41:12;;;;;;;1.17;0.75;;;;;;;1.93;72.73;94723.59;5003363;28;20034;-81
2024/01/18 07:43:39;;;;;;;1.30;0.50;;;;;;;1.88;72.25;94747.44;5004919;28;20047;-83
2024/01/18 07:46:05;;;;;;;1.67;0.93;;;;;;;1.85;72.09;94750.50;5015129;28;20527;-84
2024/01/18 07:48:30;;;;;;;2.50;1.05;;;;;;;2.21;72.13;94766.06;4998038;28;20057;-85
2024/01/18 07:50:56;;;;;;;1.65;1.00;;;;;;;2.00;71.78;94765.97;4987541;28;20455;-84
2024/01/18 07:53:21;;;;;;;1.63;0.80;;;;;;;1.57;72.57;94777.28;4993600;28;20033;-85
2024/01/18 07:55:46;;;;;;;1.40;0.80;;;;;;;1.92;72.56;94781.84;5006560;28;20551;-83
2024/01/18 07:58:13;;;;;;;1.40;0.70;;;;;;;1.59;72.17;94754.72;5006390;28;20030;-84
2024/01/18 08:00:39;;;;;;;0.95;0.57;;;;;;;1.89;72.10;94777.22;4999883;28;20037;-86
2024/01/18 08:03:04;;;;;;;1.45;0.80;;;;;;;1.92;71.82;94775.94;5002873;28;20034;-84
2024/01/18 08:05:29;;;;;;;1.58;1.00;;;;;;;2.08;71.72;94789.63;4994845;28;20041;-86
2024/01/18 08:07:55;;;;;;;2.08;1.10;;;;;;;1.98;71.44;94762.88;5010812;28;20129;-86
2024/01/18 08:10:20;;;;;;;2.13;0.90;;;;;;;2.01;71.17;94772.66;5025270;28;20115;-89
2024/01/18 08:12:48;;;;;;;1.95;0.90;;;;;;;2.27;70.55;94780.47;5000131;28;20161;-89
2024/01/18 08:15:14;;;;;;;2.15;1.10;;;;;;;2.45;70.28;94799.81;4999865;28;20449;-90
2024/01/18 08:17:40;;;;;;;2.00;1.45;;;;;;;2.10;70.30;94772.19;5022955;28;20013;-90
2024/01/18 08:20:12;;;;;;;1.98;1.50;;;;;;;2.03;69.71;94755.22;5005067;28;20021;-89
2024/01/18 08:22:39;;;;;;;2.17;1.00;;;;;;;2.31;70.43;94802.03;5022391;28;20040;-88
2024/01/18 08:25:06;;;;;;;2.78;1.00;;;;;;;2.17;69.30;94795.84;4994014;28;20033;-90
2024/01/18 08:27:31;;;;;;;1.67;1.00;;;;;;;1.95;70.39;94793.41;5036472;28;20547;-90
2024/01/18 08:29:58;;;;;;;5.60;1.30;;;;;;;1.78;71.69;94830.25;5043425;28;20034;-91
2024/01/18 08:32:31;;;;;;;1.27;0.55;;;;;;;1.80;70.73;94828.22;5028182;28;20182;-89
2024/01/18 08:34:57;;;;;;;1.88;1.20;;;;;;;1.28;72.76;94833.97;5026847;28;20030;-88
2024/01/18 08:37:23;;;;;;;1.13;0.65;;;;;;;1.54;71.60;94849.56;5009966;28;20030;-84
2024/01/18 08:39:48;;;;;;;1.92;0.73;;;;;;;1.63;71.71;94859.13;5035917;28;20033;-87
2024/01/18 08:42:14;;;;;;;2.17;1.10;;;;;;;0.88;72.94;94833.31;5009483;28;20379;-83
2024/01/18 08:44:45;;;;;;;2.03;0.98;;;;;;;1.25;71.90;94844.69;4993101;28;20041;-84
2024/01/18 08:47:13;;;;;;;1.73;0.88;;;;;;;1.40;71.25;94841.50;5021264;28;20037;-81
2024/01/18 08:49:39;;;;;;;3.80;1.27;;;;;;;1.50;71.63;94859.53;5027467;28;20018;-81
2024/01/18 08:52:04;;;;;;;2.85;1.33;;;;;;;0.98;72.56;94878.78;4986654;28;20375;-81
2024/01/18 08:54:31;;;;;;;2.50;1.38;;;;;;;0.92;72.93;94872.03;5016955;28;20439;-84
2024/01/18 08:56:57;;;;;;;3.45;1.80;;;;;;;1.29;71.63;94866.28;5001368;28;20064;-81
2024/01/18 08:59:23;;;;;;;4.05;1.90;;;;;;;1.49;70.90;94876.72;4993791;28;20519;-82
2024/01/18 09:01:49;;;;;;;5.15;2.08;;;;;;;1.53;71.26;94889.81;4995059;28;20032;-82
2024/01/18 09:04:14;;;;;;;3.17;1.38;;;;;;;1.52;70.79;94898.53;5029233;28;20043;-81
2024/01/18 09:06:39;;;;;;;5.53;2.67;;;;;;;1.35;72.01;94898.63;5001352;28;20826;-82
2024/01/18 09:09:11;;;;;;;3.70;2.28;;;;;;;1.49;71.43;94883.63;5002076;28;20032;-81
2024/01/18 09:11:39;;;;;;;4.80;2.47;;;;;;;1.78;71.19;94911.56;5045260;28;20065;-82
2024/01/18 09:14:05;;;;;;;5.25;2.65;;;;;;;1.97;70.15;94914.53;5013149;28;20084;-83
2024/01/18 09:16:31;;;;;;;5.75;3.10;;;;;;;1.74;70.73;94923.34;5026023;28;20077;-82
2024/01/18 09:18:57;;;;;;;2.75;1.50;;;;;;;1.57;71.80;94921.66;5018807;28;20110;-84
2024/01/18 09:21:23;;;;;;;2.28;1.40;;;;;;;1.80;70.78;94925.72;5009122;28;20609;-84
2024/01/18 09:23:48;;;;;;;3.47;1.52;;;;;;;1.44;71.53;94925.38;4994052;28;20116;-84
2024/01/18 09:26:14;;;;;;;3.25;1.60;;;;;;;1.82;69.91;94940.88;4995987;28;20436;-83
2024/01/18 09:28:39;;;;;;;3.10;1.65;;;;;;;1.13;72.46;94931.97;5012715;28;20045;-85
2024/01/18 09:31:04;;;;;;;2.97;1.88;;;;;;;1.50;71.82;94939.03;5043090;28;20451;-85
2024/01/18 09:33:30;;;;;;;4.22;2.33;;;;;;;1.16;72.06;94946.09;4997198;28;20455;-86
2024/01/18 09:35:55;;;;;;;2.55;1.70;;;;;;;1.30;72.21;94960.88;4997111;28;20040;-85
2024/01/18 09:38:21;;;;;;;4.43;2.63;;;;;;;1.80;70.92;94976.22;4995886;28;20161;-86
2024/01/18 09:40:47;;;;;;;3.65;1.90;;;;;;;1.62;71.16;94975.56;5011920;28;20046;-85
2024/01/18 09:43:14;;;;;;;3.25;2.05;;;;;;;1.72;70.53;94984.38;5010725;28;20088;-86
2024/01/18 09:45:43;;;;;;;3.50;2.28;;;;;;;1.90;70.28;95001.22;5018576;28;20033;-86
2024/01/18 09:48:09;;;;;;;3.80;2.50;;;;;;;1.77;69.96;94977.50;5042293;28;20116;-87
2024/01/18 09:50:45;;;;;;;15.68;6.97;;;;;;;2.26;69.51;95020.25;5023735;28;20087;-87
2024/01/18 09:53:11;;;;;;;29.25;11.10;;;;;;;1.97;70.30;95023.13;5008931;28;20033;-85
2024/01/18 09:55:37;;;;;;;13.02;8.27;;;;;;;1.99;69.81;95030.56;5028235;28;20030;-86
2024/01/18 09:58:03;;;;;;;10.65;6.00;;;;;;;2.15;69.41;95031.47;5026376;28;20096;-87
2024/01/18 10:00:31;;;;;;;15.80;8.85;;;;;;;2.10;69.15;95034.75;5038459;28;20081;-87
2024/01/18 10:02:56;;;;;;;8.15;4.45;;;;;;;1.51;70.59;95030.34;5017440;28;20517;-84
2024/01/18 10:05:22;;;;;;;10.95;6.15;;;;;;;1.94;70.14;95039.00;5021689;28;20029;-88
2024/01/18 10:07:48;;;;;;;8.30;4.85;;;;;;;1.99;69.61;95040.84;5009212;28;20021;-86
2024/01/18 10:10:15;;;;;;;8.00;5.38;;;;;;;2.10;69.06;95042.47;5010296;28;20374;-86
2024/01/18 10:12:44;;;;;;;7.03;4.30;;;;;;;1.75;70.74;95061.63;4993237;28;20459;-85
2024/01/18 10:15:10;;;;;;;7.82;4.70;;;;;;;1.88;69.74;95052.78;5040349;28;20040;-86
2024/01/18 10:17:37;;;;;;;7.75;4.95;;;;;;;2.13;69.57;95066.91;5072116;23;20025;-86
2024/01/18 10:20:04;;;;;;;5.50;3.78;;;;;;;2.19;69.26;95061.56;5037481;28;20072;-88
2024/01/18 10:22:29;;;;;;;5.93;3.58;;;;;;;1.72;69.94;95056.97;5020364;28;20068;-85
2024/01/18 10:24:55;;;;;;;8.75;4.85;;;;;;;1.85;70.63;95084.84;5022023;28;20030;-88
2024/01/18 10:27:21;;;;;;;6.03;3.80;;;;;;;1.86;69.68;95067.66;4995330;28;20251;-88
2024/01/18 10:29:47;;;;;;;8.85;4.72;;;;;;;1.93;69.94;95088.75;5127737;23;20069;-87
2024/01/18 10:32:13;;;;;;;7.78;4.28;;;;;;;2.14;69.38;95102.59;5009886;28;20182;-87
2024/01/18 10:34:39;;;;;;;8.52;5.07;;;;;;;2.22;69.65;95109.06;5089543;23;20053;-87
2024/01/18 10:37:05;;;;;;;8.30;5.05;;;;;;;1.81;69.91;95095.81;5004343;28;20040;-86
2024/01/18 10:39:39;;;;;;;7.25;4.13;;;;;;;2.01;69.72;95103.72;5013355;28;20041;-89
2024/01/18 10:42:07;;;;;;;10.65;6.40;;;;;;;2.19;69.92;95110.34;5033728;28;20020;-87
2024/01/18 10:44:37;;;;;;;7.38;4.32;;;;;;;2.18;68.27;95101.06;5086007;23;20049;-88
2024/01/18 10:47:14;;;;;;;4.57;3.15;;;;;;;2.34;68.54;95107.13;5516668;23;20041;-88
2024/01/18 10:49:42;;;;;;;6.43;3.63;;;;;;;2.34;68.29;95104.56;5007998;23;20048;-88
2024/01/18 10:52:09;;;;;;;7.90;3.90;;;;;;;2.22;69.48;95112.41;5076408;23;20274;-88
2024/01/18 10:54:36;;;;;;;6.57;4.47;;;;;;;1.99;69.15;95105.00;5006006;28;20114;-88
2024/01/18 10:57:01;;;;;;;7.05;4.00;;;;;;;2.09;69.33;95150.50;5030497;28;20338;-89
2024/01/18 10:59:29;;;;;;;7.32;4.30;;;;;;;2.16;69.83;95154.47;5033440;28;20022;-88
2024/01/18 11:01:57;;;;;;;5.43;3.47;;;;;;;2.00;70.45;95150.94;5015240;28;20060;-88
2024/01/18 11:04:23;;;;;;;5.68;3.38;;;;;;;1.83;70.31;95155.34;5003253;28;20101;-88
2024/01/18 11:44:01;;;;;;;7.15;4.93;;;;;;;2.38;69.30;95236.63;5015540;28;20101;-87
2024/01/18 11:46:46;;;;;;;6.22;4.15;;;;;;;2.51;69.25;95239.84;4983921;28;20034;-88
2024/01/18 11:49:12;;;;;;;7.03;4.00;;;;;;;2.54;68.27;95258.09;4999183;28;20394;-86
2024/01/18 11:51:38;;;;;;;7.38;4.38;;;;;;;2.57;68.58;95256.84;4973756;28;20034;-90
2024/01/18 11:54:05;;;;;;;6.25;4.53;;;;;;;2.57;68.18;95272.25;4988029;28;20044;-86
2024/01/18 11:56:35;;;;;;;8.70;4.65;;;;;;;2.51;68.75;95273.22;5000087;28;20045;-90
2024/01/18 11:59:00;;;;;;;8.48;4.25;;;;;;;2.12;69.59;95245.03;4980410;28;20469;-89
2024/01/18 12:01:29;;;;;;;7.05;4.20;;;;;;;2.56;69.01;95283.56;4995850;28;20034;-87
2024/01/18 12:03:54;;;;;;;9.25;4.72;;;;;;;2.68;67.95;95288.56;4996265;28;20053;-90
2024/01/18 12:08:56;;;;;;;;;;;;;;;3.12;66.64;95307.28;5224453;23;20041;-87
2024/01/18 12:11:21;;;;;;;8.25;4.43;;;;;;;2.86;67.35;95287.47;5134361;23;19921;-88
2024/01/18 12:16:21;;;;;;;7.80;4.32;;;;;;;2.79;67.02;95321.84;5020188;28;20077;-87
2024/01/18 12:18:47;;;;;;;7.22;4.63;;;;;;;2.96;67.12;95326.13;4998786;28;20121;-85